sensor_id;sensor_type;location;lat;lon;timestamp;pressure;altitude;pressure_sealevel;temperature;humidity
39789;BME280;25478;42.626;23.320;2023-02-04T00:01:29;92848.66;;;-0.69;70.55
39789;BME280;25478;42.626;23.320;2023-02-04T00:03:54;92828.31;;;-0.70;71.69
39789;BME280;25478;42.626;23.320;2023-02-04T00:06:20;92823.31;;;-0.75;71.81
39789;BME280;25478;42.626;23.320;2023-02-04T00:08:45;92830.00;;;-0.74;72.12
39789;BME280;25478;42.626;23.320;2023-02-04T00:11:11;92816.31;;;-0.75;72.99
39789;BME280;25478;42.626;23.320;2023-02-04T00:13:36;92821.53;;;-0.83;73.20
39789;BME280;25478;42.626;23.320;2023-02-04T00:16:01;92819.53;;;-0.87;74.46
39789;BME280;25478;42.626;23.320;2023-02-04T00:18:27;92822.13;;;-0.87;73.96
39789;BME280;25478;42.626;23.320;2023-02-04T00:20:53;92826.97;;;-0.85;74.21
39789;BME280;25478;42.626;23.320;2023-02-04T00:23:18;92800.53;;;-0.82;74.89
39789;BME280;25478;42.626;23.320;2023-02-04T00:25:44;92807.53;;;-0.82;75.27
39789;BME280;25478;42.626;23.320;2023-02-04T00:28:09;92808.59;;;-0.83;74.61
39789;BME280;25478;42.626;23.320;2023-02-04T00:30:34;92802.78;;;-0.80;75.13
39789;BME280;25478;42.626;23.320;2023-02-04T00:33:00;92796.25;;;-0.78;75.24
39789;BME280;25478;42.626;23.320;2023-02-04T00:35:26;92797.47;;;-0.75;75.46
39789;BME280;25478;42.626;23.320;2023-02-04T00:37:51;92802.63;;;-0.75;75.16
39789;BME280;25478;42.626;23.320;2023-02-04T00:40:17;92784.06;;;-0.77;75.49
39789;BME280;25478;42.626;23.320;2023-02-04T00:42:42;92784.72;;;-0.80;75.59
39789;BME280;25478;42.626;23.320;2023-02-04T00:45:09;92809.94;;;-0.86;76.15
39789;BME280;25478;42.626;23.320;2023-02-04T00:47:34;92807.84;;;-0.93;76.60
39789;BME280;25478;42.626;23.320;2023-02-04T00:49:59;92793.91;;;-1.00;77.59
39789;BME280;25478;42.626;23.320;2023-02-04T00:52:25;92805.59;;;-1.03;78.38
39789;BME280;25478;42.626;23.320;2023-02-04T00:54:50;92808.63;;;-1.09;78.45
39789;BME280;25478;42.626;23.320;2023-02-04T00:57:16;92784.34;;;-1.08;78.53
39789;BME280;25478;42.626;23.320;2023-02-04T00:59:41;92795.72;;;-1.09;79.07
39789;BME280;25478;42.626;23.320;2023-02-04T01:02:07;92762.59;;;-1.07;80.36
39789;BME280;25478;42.626;23.320;2023-02-04T01:04:33;92766.09;;;-1.12;80.31
39789;BME280;25478;42.626;23.320;2023-02-04T01:06:58;92760.03;;;-1.16;81.42
39789;BME280;25478;42.626;23.320;2023-02-04T01:09:25;92771.75;;;-1.27;82.02
39789;BME280;25478;42.626;23.320;2023-02-04T01:11:50;92752.47;;;-1.30;81.33
39789;BME280;25478;42.626;23.320;2023-02-04T01:14:16;92749.88;;;-1.30;81.74
39789;BME280;25478;42.626;23.320;2023-02-04T01:16:41;92739.88;;;-1.31;81.80
39789;BME280;25478;42.626;23.320;2023-02-04T01:19:07;92736.53;;;-1.32;82.96
39789;BME280;25478;42.626;23.320;2023-02-04T01:21:32;92742.13;;;-1.30;83.07
39789;BME280;25478;42.626;23.320;2023-02-04T01:23:58;92731.19;;;-1.27;84.16
39789;BME280;25478;42.626;23.320;2023-02-04T01:26:23;92725.25;;;-1.27;83.72
39789;BME280;25478;42.626;23.320;2023-02-04T01:28:48;92712.34;;;-1.27;82.83
39789;BME280;25478;42.626;23.320;2023-02-04T01:31:14;92726.94;;;-1.23;83.42
39789;BME280;25478;42.626;23.320;2023-02-04T01:33:40;92719.81;;;-1.26;83.67
39789;BME280;25478;42.626;23.320;2023-02-04T01:36:05;92719.81;;;-1.26;83.47
39789;BME280;25478;42.626;23.320;2023-02-04T01:38:30;92706.91;;;-1.26;84.59
39789;BME280;25478;42.626;23.320;2023-02-04T01:40:56;92725.25;;;-1.27;84.77
39789;BME280;25478;42.626;23.320;2023-02-04T01:43:22;92706.59;;;-1.24;85.03
39789;BME280;25478;42.626;23.320;2023-02-04T01:45:48;92714.34;;;-1.24;85.25
39789;BME280;25478;42.626;23.320;2023-02-04T01:48:14;92718.13;;;-1.22;85.78
39789;BME280;25478;42.626;23.320;2023-02-04T01:50:48;92694.75;;;-1.25;85.13
39789;BME280;25478;42.626;23.320;2023-02-04T01:53:15;92704.75;;;-1.24;85.52
39789;BME280;25478;42.626;23.320;2023-02-04T01:55:42;92697.47;;;-1.22;85.02
39789;BME280;25478;42.626;23.320;2023-02-04T01:58:08;92689.06;;;-1.19;84.88
39789;BME280;25478;42.626;23.320;2023-02-04T02:00:34;92683.63;;;-1.17;84.71
39789;BME280;25478;42.626;23.320;2023-02-04T02:02:59;92679.78;;;-1.11;85.53
39789;BME280;25478;42.626;23.320;2023-02-04T02:05:32;92704.84;;;-1.11;85.01
39789;BME280;25478;42.626;23.320;2023-02-04T02:08:00;92682.06;;;-1.09;85.24
39789;BME280;25478;42.626;23.320;2023-02-04T02:10:27;92684.03;;;-1.06;85.49
39789;BME280;25478;42.626;23.320;2023-02-04T02:12:53;92690.28;;;-1.07;85.87
39789;BME280;25478;42.626;23.320;2023-02-04T02:15:19;92679.75;;;-1.02;85.99
39789;BME280;25478;42.626;23.320;2023-02-04T02:17:45;92678.06;;;-0.98;85.65
39789;BME280;25478;42.626;23.320;2023-02-04T02:20:13;92665.59;;;-0.96;85.64
39789;BME280;25478;42.626;23.320;2023-02-04T02:25:23;92669.38;;;-0.94;85.59
39789;BME280;25478;42.626;23.320;2023-02-04T02:27:48;92642.63;;;-0.89;85.49
39789;BME280;25478;42.626;23.320;2023-02-04T02:30:14;92639.38;;;-0.86;86.25
39789;BME280;25478;42.626;23.320;2023-02-04T02:32:42;92650.94;;;-0.83;85.90
39789;BME280;25478;42.626;23.320;2023-02-04T02:35:08;92647.03;;;-0.90;85.69
39789;BME280;25478;42.626;23.320;2023-02-04T02:37:33;92607.81;;;-0.92;86.69
39789;BME280;25478;42.626;23.320;2023-02-04T02:39:58;92613.47;;;-0.98;86.43
39789;BME280;25478;42.626;23.320;2023-02-04T02:42:24;92590.22;;;-0.98;86.69
39789;BME280;25478;42.626;23.320;2023-02-04T02:44:49;92620.53;;;-1.07;86.90
39789;BME280;25478;42.626;23.320;2023-02-04T02:47:16;92601.72;;;-1.17;86.82
39789;BME280;25478;42.626;23.320;2023-02-04T02:49:43;92590.94;;;-1.19;87.64
39789;BME280;25478;42.626;23.320;2023-02-04T02:52:11;92592.00;;;-1.20;87.81
39789;BME280;25478;42.626;23.320;2023-02-04T02:54:37;92591.88;;;-1.23;88.04
39789;BME280;25478;42.626;23.320;2023-02-04T02:57:09;92588.84;;;-1.25;87.88
39789;BME280;25478;42.626;23.320;2023-02-04T02:59:37;92600.69;;;-1.24;87.62
39789;BME280;25478;42.626;23.320;2023-02-04T03:02:02;92595.53;;;-1.24;87.45
39789;BME280;25478;42.626;23.320;2023-02-04T03:04:32;92576.50;;;-1.20;87.23
39789;BME280;25478;42.626;23.320;2023-02-04T03:07:01;92580.00;;;-1.16;87.61
39789;BME280;25478;42.626;23.320;2023-02-04T03:09:27;92598.63;;;-1.10;88.03
39789;BME280;25478;42.626;23.320;2023-02-04T03:11:53;92592.09;;;-1.07;87.68
39789;BME280;25478;42.626;23.320;2023-02-04T03:14:19;92582.31;;;-1.02;88.07
39789;BME280;25478;42.626;23.320;2023-02-04T03:16:45;92584.91;;;-1.02;87.98
39789;BME280;25478;42.626;23.320;2023-02-04T03:19:11;92602.38;;;-0.99;87.14
39789;BME280;25478;42.626;23.320;2023-02-04T03:21:37;92623.50;;;-0.97;87.27
39789;BME280;25478;42.626;23.320;2023-02-04T03:24:03;92630.31;;;-0.92;87.02
39789;BME280;25478;42.626;23.320;2023-02-04T03:26:28;92630.63;;;-0.94;87.53
39789;BME280;25478;42.626;23.320;2023-02-04T03:28:54;92589.75;;;-0.92;87.08
39789;BME280;25478;42.626;23.320;2023-02-04T03:31:20;92598.09;;;-0.95;87.21
39789;BME280;25478;42.626;23.320;2023-02-04T03:33:45;92591.75;;;-0.97;87.29
39789;BME280;25478;42.626;23.320;2023-02-04T03:36:11;92598.84;;;-0.94;87.80
39789;BME280;25478;42.626;23.320;2023-02-04T03:38:36;92594.59;;;-0.90;87.78
39789;BME280;25478;42.626;23.320;2023-02-04T03:41:02;92618.28;;;-0.88;87.55
39789;BME280;25478;42.626;23.320;2023-02-04T03:43:28;92600.03;;;-0.83;88.07
39789;BME280;25478;42.626;23.320;2023-02-04T03:45:53;92590.88;;;-0.80;88.14
39789;BME280;25478;42.626;23.320;2023-02-04T03:48:18;92595.09;;;-0.76;87.96
39789;BME280;25478;42.626;23.320;2023-02-04T03:50:44;92563.47;;;-0.73;87.67
39789;BME280;25478;42.626;23.320;2023-02-04T03:53:09;92564.31;;;-0.69;88.01
39789;BME280;25478;42.626;23.320;2023-02-04T03:55:35;92553.56;;;-0.71;87.42
39789;BME280;25478;42.626;23.320;2023-02-04T03:58:01;92547.00;;;-0.68;87.72
39789;BME280;25478;42.626;23.320;2023-02-04T04:00:26;92527.19;;;-0.64;88.17
39789;BME280;25478;42.626;23.320;2023-02-04T04:02:52;92523.66;;;-0.60;87.87
39789;BME280;25478;42.626;23.320;2023-02-04T04:05:17;92523.97;;;-0.40;87.31
39789;BME280;25478;42.626;23.320;2023-02-04T04:07:43;92513.13;;;-0.21;87.30
39789;BME280;25478;42.626;23.320;2023-02-04T04:10:09;92504.41;;;-0.17;86.75
39789;BME280;25478;42.626;23.320;2023-02-04T04:12:35;92505.47;;;-0.18;86.41
39789;BME280;25478;42.626;23.320;2023-02-04T04:15:00;92510.34;;;-0.16;86.95
39789;BME280;25478;42.626;23.320;2023-02-04T04:17:26;92499.53;;;-0.18;86.48
39789;BME280;25478;42.626;23.320;2023-02-04T04:19:51;92494.78;;;-0.29;86.60
39789;BME280;25478;42.626;23.320;2023-02-04T04:22:17;92497.44;;;-0.37;86.50
39789;BME280;25478;42.626;23.320;2023-02-04T04:24:42;92497.44;;;-0.37;87.38
39789;BME280;25478;42.626;23.320;2023-02-04T04:27:07;92525.56;;;-0.36;87.27
39789;BME280;25478;42.626;23.320;2023-02-04T04:29:33;92503.28;;;-0.40;86.87
39789;BME280;25478;42.626;23.320;2023-02-04T04:31:58;92520.91;;;-0.42;87.85
39789;BME280;25478;42.626;23.320;2023-02-04T04:34:23;92506.47;;;-0.43;87.96
39789;BME280;25478;42.626;23.320;2023-02-04T04:36:49;92520.97;;;-0.30;87.67
39789;BME280;25478;42.626;23.320;2023-02-04T04:39:14;92526.78;;;0.00;86.74
39789;BME280;25478;42.626;23.320;2023-02-04T04:41:40;92515.63;;;-0.01;86.76
39789;BME280;25478;42.626;23.320;2023-02-04T04:44:05;92537.47;;;0.23;86.45
39789;BME280;25478;42.626;23.320;2023-02-04T04:46:30;92543.28;;;0.32;85.76
39789;BME280;25478;42.626;23.320;2023-02-04T04:48:56;92539.31;;;0.35;85.22
39789;BME280;25478;42.626;23.320;2023-02-04T04:51:21;92547.50;;;0.24;85.19
39789;BME280;25478;42.626;23.320;2023-02-04T04:53:47;92551.91;;;0.24;85.51
39789;BME280;25478;42.626;23.320;2023-02-04T04:56:12;92541.88;;;0.22;85.33
39789;BME280;25478;42.626;23.320;2023-02-04T04:58:37;92545.13;;;0.19;85.74
39789;BME280;25478;42.626;23.320;2023-02-04T05:01:03;92558.44;;;0.42;85.76
39789;BME280;25478;42.626;23.320;2023-02-04T05:03:28;92543.97;;;0.66;84.71
39789;BME280;25478;42.626;23.320;2023-02-04T05:05:54;92550.22;;;0.65;84.84
39789;BME280;25478;42.626;23.320;2023-02-04T05:08:19;92533.69;;;0.81;84.53
39789;BME280;25478;42.626;23.320;2023-02-04T05:10:45;92526.00;;;0.97;84.73
39789;BME280;25478;42.626;23.320;2023-02-04T05:13:11;92523.72;;;1.20;84.32
39789;BME280;25478;42.626;23.320;2023-02-04T05:15:36;92532.31;;;1.36;83.78
39789;BME280;25478;42.626;23.320;2023-02-04T05:18:02;92529.66;;;1.49;82.92
39789;BME280;25478;42.626;23.320;2023-02-04T05:20:28;92533.06;;;1.65;82.12
39789;BME280;25478;42.626;23.320;2023-02-04T05:22:53;92539.53;;;1.71;81.18
39789;BME280;25478;42.626;23.320;2023-02-04T05:25:20;92556.03;;;1.79;80.92
39789;BME280;25478;42.626;23.320;2023-02-04T05:27:45;92560.75;;;1.89;79.37
39789;BME280;25478;42.626;23.320;2023-02-04T05:30:11;92549.28;;;1.90;78.98
39789;BME280;25478;42.626;23.320;2023-02-04T05:32:37;92568.81;;;2.00;78.16
39789;BME280;25478;42.626;23.320;2023-02-04T05:35:02;92568.16;;;2.03;77.67
39789;BME280;25478;42.626;23.320;2023-02-04T05:37:28;92578.63;;;2.06;77.92
39789;BME280;25478;42.626;23.320;2023-02-04T05:39:53;92581.66;;;2.08;76.09
39789;BME280;25478;42.626;23.320;2023-02-04T05:42:18;92595.81;;;2.11;76.01
39789;BME280;25478;42.626;23.320;2023-02-04T05:44:44;92573.09;;;2.08;75.76
39789;BME280;25478;42.626;23.320;2023-02-04T05:47:09;92616.81;;;2.06;74.65
39789;BME280;25478;42.626;23.320;2023-02-04T05:49:35;92607.75;;;2.00;75.96
39789;BME280;25478;42.626;23.320;2023-02-04T05:52:00;92612.66;;;1.89;77.42
39789;BME280;25478;42.626;23.320;2023-02-04T05:54:25;92623.09;;;1.77;78.08
39789;BME280;25478;42.626;23.320;2023-02-04T05:56:51;92633.16;;;1.66;78.86
39789;BME280;25478;42.626;23.320;2023-02-04T05:59:16;92617.31;;;1.55;79.44
39789;BME280;25478;42.626;23.320;2023-02-04T06:01:42;92610.94;;;1.53;80.00
39789;BME280;25478;42.626;23.320;2023-02-04T06:04:07;92573.34;;;1.47;80.14
39789;BME280;25478;42.626;23.320;2023-02-04T06:06:33;92565.03;;;1.41;79.11
39789;BME280;25478;42.626;23.320;2023-02-04T06:08:58;92562.00;;;1.39;78.44
39789;BME280;25478;42.626;23.320;2023-02-04T06:11:24;92561.16;;;1.35;77.43
39789;BME280;25478;42.626;23.320;2023-02-04T06:13:49;92575.41;;;1.41;76.66
39789;BME280;25478;42.626;23.320;2023-02-04T06:16:14;92581.78;;;1.44;75.75
39789;BME280;25478;42.626;23.320;2023-02-04T06:18:40;92596.00;;;1.50;75.13
39789;BME280;25478;42.626;23.320;2023-02-04T06:21:05;92586.84;;;1.52;74.65
39789;BME280;25478;42.626;23.320;2023-02-04T06:23:31;92606.78;;;1.64;73.69
39789;BME280;25478;42.626;23.320;2023-02-04T06:25:58;92602.56;;;1.72;73.56
39789;BME280;25478;42.626;23.320;2023-02-04T06:28:24;92615.53;;;1.72;74.38
39789;BME280;25478;42.626;23.320;2023-02-04T06:30:49;92600.16;;;1.79;73.93
39789;BME280;25478;42.626;23.320;2023-02-04T06:33:15;92602.97;;;1.86;73.54
39789;BME280;25478;42.626;23.320;2023-02-04T06:35:40;92614.94;;;1.90;72.59
39789;BME280;25478;42.626;23.320;2023-02-04T06:38:05;92613.63;;;1.96;71.35
39789;BME280;25478;42.626;23.320;2023-02-04T06:40:31;92621.25;;;2.05;70.48
39789;BME280;25478;42.626;23.320;2023-02-04T06:42:56;92615.06;;;2.10;69.08
39789;BME280;25478;42.626;23.320;2023-02-04T06:45:22;92618.75;;;2.09;69.68
39789;BME280;25478;42.626;23.320;2023-02-04T06:47:47;92610.06;;;2.17;69.27
39789;BME280;25478;42.626;23.320;2023-02-04T06:50:12;92620.22;;;2.22;69.53
39789;BME280;25478;42.626;23.320;2023-02-04T06:52:45;92619.97;;;2.27;69.45
39789;BME280;25478;42.626;23.320;2023-02-04T06:55:11;92615.63;;;2.31;69.34
39789;BME280;25478;42.626;23.320;2023-02-04T06:57:37;92606.84;;;2.36;69.62
39789;BME280;25478;42.626;23.320;2023-02-04T07:00:02;92603.66;;;2.42;69.48
39789;BME280;25478;42.626;23.320;2023-02-04T07:02:28;92610.53;;;2.50;69.04
39789;BME280;25478;42.626;23.320;2023-02-04T07:04:54;92605.91;;;2.60;68.26
39789;BME280;25478;42.626;23.320;2023-02-04T07:07:19;92590.78;;;2.62;68.45
39789;BME280;25478;42.626;23.320;2023-02-04T07:09:44;92608.22;;;2.61;68.58
39789;BME280;25478;42.626;23.320;2023-02-04T07:12:10;92600.91;;;2.67;68.54
39789;BME280;25478;42.626;23.320;2023-02-04T07:14:35;92608.28;;;2.80;68.46
39789;BME280;25478;42.626;23.320;2023-02-04T07:17:00;92591.50;;;2.94;68.04
39789;BME280;25478;42.626;23.320;2023-02-04T07:19:26;92598.03;;;3.03;67.92
39789;BME280;25478;42.626;23.320;2023-02-04T07:21:51;92584.13;;;3.12;67.86
39789;BME280;25478;42.626;23.320;2023-02-04T07:24:20;92597.25;;;3.19;66.87
39789;BME280;25478;42.626;23.320;2023-02-04T07:26:46;92588.19;;;3.28;66.71
39789;BME280;25478;42.626;23.320;2023-02-04T07:29:11;92574.09;;;3.29;65.62
39789;BME280;25478;42.626;23.320;2023-02-04T07:31:37;92591.53;;;3.29;65.87
39789;BME280;25478;42.626;23.320;2023-02-04T07:34:02;92575.66;;;3.34;65.10
39789;BME280;25478;42.626;23.320;2023-02-04T07:36:27;92577.69;;;3.25;64.82
39789;BME280;25478;42.626;23.320;2023-02-04T07:38:53;92572.59;;;3.28;65.07
39789;BME280;25478;42.626;23.320;2023-02-04T07:41:18;92575.94;;;3.29;65.28
39789;BME280;25478;42.626;23.320;2023-02-04T07:43:45;92564.59;;;3.37;65.19
39789;BME280;25478;42.626;23.320;2023-02-04T07:46:10;92565.91;;;3.47;64.67
39789;BME280;25478;42.626;23.320;2023-02-04T07:48:37;92562.69;;;3.53;64.58
39789;BME280;25478;42.626;23.320;2023-02-04T07:51:02;92572.19;;;3.65;64.20
39789;BME280;25478;42.626;23.320;2023-02-04T07:53:28;92560.44;;;3.71;62.39
39789;BME280;25478;42.626;23.320;2023-02-04T07:55:53;92557.88;;;3.75;62.88
39789;BME280;25478;42.626;23.320;2023-02-04T07:58:18;92565.00;;;3.78;62.06
39789;BME280;25478;42.626;23.320;2023-02-04T08:00:44;92568.84;;;3.84;62.02
39789;BME280;25478;42.626;23.320;2023-02-04T08:03:09;92579.19;;;3.80;62.84
39789;BME280;25478;42.626;23.320;2023-02-04T08:05:34;92579.88;;;3.77;62.19
39789;BME280;25478;42.626;23.320;2023-02-04T08:08:00;92581.56;;;3.70;62.76
39789;BME280;25478;42.626;23.320;2023-02-04T08:10:26;92516.09;;;3.29;63.06
39789;BME280;25478;42.626;23.320;2023-02-04T08:12:51;92570.16;;;3.55;63.53
39789;BME280;25478;42.626;23.320;2023-02-04T08:15:17;92569.25;;;3.47;64.37
39789;BME280;25478;42.626;23.320;2023-02-04T08:17:42;92569.59;;;3.46;64.52
39789;BME280;25478;42.626;23.320;2023-02-04T08:20:07;92565.34;;;3.37;64.73
39789;BME280;25478;42.626;23.320;2023-02-04T08:22:33;92579.44;;;3.36;65.08
39789;BME280;25478;42.626;23.320;2023-02-04T08:24:59;92574.91;;;3.33;64.92
39789;BME280;25478;42.626;23.320;2023-02-04T08:27:24;92571.53;;;3.33;64.91
39789;BME280;25478;42.626;23.320;2023-02-04T08:29:50;92561.63;;;3.38;65.38
39789;BME280;25478;42.626;23.320;2023-02-04T08:32:15;92570.66;;;3.45;64.58
39789;BME280;25478;42.626;23.320;2023-02-04T08:34:41;92563.53;;;3.42;64.58
39789;BME280;25478;42.626;23.320;2023-02-04T08:37:06;92559.84;;;3.43;64.48
39789;BME280;25478;42.626;23.320;2023-02-04T08:39:31;92555.25;;;3.36;65.30
39789;BME280;25478;42.626;23.320;2023-02-04T08:41:57;92553.50;;;3.40;65.15
39789;BME280;25478;42.626;23.320;2023-02-04T08:44:23;92553.53;;;3.44;65.54
39789;BME280;25478;42.626;23.320;2023-02-04T08:46:48;92556.28;;;3.51;65.58
39789;BME280;25478;42.626;23.320;2023-02-04T08:49:13;92565.28;;;3.53;65.37
39789;BME280;25478;42.626;23.320;2023-02-04T08:51:40;92561.50;;;3.51;65.63
39789;BME280;25478;42.626;23.320;2023-02-04T08:54:05;92552.19;;;3.50;65.39
39789;BME280;25478;42.626;23.320;2023-02-04T08:56:30;92554.31;;;3.44;65.10
39789;BME280;25478;42.626;23.320;2023-02-04T08:58:56;92554.66;;;3.43;65.27
39789;BME280;25478;42.626;23.320;2023-02-04T09:01:21;92556.91;;;3.44;66.15
39789;BME280;25478;42.626;23.320;2023-02-04T09:03:46;92550.28;;;3.47;65.83
39789;BME280;25478;42.626;23.320;2023-02-04T09:06:12;92554.53;;;3.55;65.65
39789;BME280;25478;42.626;23.320;2023-02-04T09:08:37;92548.28;;;3.59;65.39
39789;BME280;25478;42.626;23.320;2023-02-04T09:11:03;92543.09;;;3.59;65.05
39789;BME280;25478;42.626;23.320;2023-02-04T09:13:29;92544.28;;;3.62;65.14
39789;BME280;25478;42.626;23.320;2023-02-04T09:15:54;92544.38;;;3.69;65.32
39789;BME280;25478;42.626;23.320;2023-02-04T09:18:20;92544.06;;;3.71;64.99
39789;BME280;25478;42.626;23.320;2023-02-04T09:20:47;92548.84;;;3.68;64.83
39789;BME280;25478;42.626;23.320;2023-02-04T09:23:13;92543.38;;;3.74;64.68
39789;BME280;25478;42.626;23.320;2023-02-04T09:25:38;92556.38;;;3.74;64.78
39789;BME280;25478;42.626;23.320;2023-02-04T09:28:04;92555.78;;;3.80;64.76
39789;BME280;25478;42.626;23.320;2023-02-04T09:30:30;92545.75;;;3.82;64.17
39789;BME280;25478;42.626;23.320;2023-02-04T09:32:56;92558.06;;;3.85;64.03
39789;BME280;25478;42.626;23.320;2023-02-04T09:35:21;92551.78;;;3.86;64.34
39789;BME280;25478;42.626;23.320;2023-02-04T09:37:46;92553.97;;;3.84;64.22
39789;BME280;25478;42.626;23.320;2023-02-04T09:40:16;92541.91;;;3.76;65.46
39789;BME280;25478;42.626;23.320;2023-02-04T09:42:51;92545.22;;;3.73;66.38
39789;BME280;25478;42.626;23.320;2023-02-04T09:45:22;92538.72;;;3.63;67.36
39789;BME280;25478;42.626;23.320;2023-02-04T09:47:48;92533.78;;;3.58;67.98
39789;BME280;25478;42.626;23.320;2023-02-04T09:50:15;92542.63;;;3.54;69.59
39789;BME280;25478;42.626;23.320;2023-02-04T09:52:41;92525.69;;;3.44;71.03
39789;BME280;25478;42.626;23.320;2023-02-04T09:55:13;92514.88;;;3.42;71.35
39789;BME280;25478;42.626;23.320;2023-02-04T09:57:39;92525.13;;;3.35;71.36
39789;BME280;25478;42.626;23.320;2023-02-04T10:00:09;92514.47;;;3.40;71.21
39789;BME280;25478;42.626;23.320;2023-02-04T10:02:38;92518.72;;;3.48;70.79
39789;BME280;25478;42.626;23.320;2023-02-04T10:05:05;92515.41;;;3.51;69.90
39789;BME280;25478;42.626;23.320;2023-02-04T10:07:30;92512.47;;;3.53;69.23
39789;BME280;25478;42.626;23.320;2023-02-04T10:09:56;92509.94;;;3.56;68.62
39789;BME280;25478;42.626;23.320;2023-02-04T10:12:22;92506.84;;;3.51;68.39
39789;BME280;25478;42.626;23.320;2023-02-04T10:14:48;92502.47;;;3.55;68.38
39789;BME280;25478;42.626;23.320;2023-02-04T10:17:16;92494.72;;;3.58;67.29
39789;BME280;25478;42.626;23.320;2023-02-04T10:19:42;92498.50;;;3.61;66.55
39789;BME280;25478;42.626;23.320;2023-02-04T10:22:14;92484.31;;;3.58;66.85
39789;BME280;25478;42.626;23.320;2023-02-04T10:24:41;92490.56;;;3.54;67.48
39789;BME280;25478;42.626;23.320;2023-02-04T10:27:07;92484.19;;;3.51;68.30
39789;BME280;25478;42.626;23.320;2023-02-04T10:29:33;92483.97;;;3.60;68.50
39789;BME280;25478;42.626;23.320;2023-02-04T10:31:58;92493.63;;;3.59;67.90
39789;BME280;25478;42.626;23.320;2023-02-04T10:34:31;92487.81;;;3.66;67.93
39789;BME280;25478;42.626;23.320;2023-02-04T10:36:57;92488.22;;;3.68;68.06
39789;BME280;25478;42.626;23.320;2023-02-04T10:41:52;92487.13;;;3.50;70.71
39789;BME280;25478;42.626;23.320;2023-02-04T10:44:44;92495.97;;;3.45;72.69
39789;BME280;25478;42.626;23.320;2023-02-04T10:47:13;92484.94;;;3.32;73.81
39789;BME280;25478;42.626;23.320;2023-02-04T10:49:39;92483.03;;;3.29;74.41
39789;BME280;25478;42.626;23.320;2023-02-04T10:52:12;92489.94;;;3.22;75.02
39789;BME280;25478;42.626;23.320;2023-02-04T10:54:39;92472.69;;;3.14;75.34
39789;BME280;25478;42.626;23.320;2023-02-04T10:57:25;92463.19;;;3.21;74.96
39789;BME280;25478;42.626;23.320;2023-02-04T10:59:52;92472.94;;;3.28;74.21
39789;BME280;25478;42.626;23.320;2023-02-04T11:05:14;92457.28;;;3.44;72.51
39789;BME280;25478;42.626;23.320;2023-02-04T11:07:40;92455.63;;;3.55;71.35
39789;BME280;25478;42.626;23.320;2023-02-04T11:10:05;92448.72;;;3.62;69.91
39789;BME280;25478;42.626;23.320;2023-02-04T11:12:39;92454.81;;;3.70;69.88
39789;BME280;25478;42.626;23.320;2023-02-04T11:15:06;92454.09;;;3.73;68.61
39789;BME280;25478;42.626;23.320;2023-02-04T11:17:32;92440.47;;;3.80;68.67
39789;BME280;25478;42.626;23.320;2023-02-04T11:19:58;92439.94;;;3.93;67.85
39789;BME280;25478;42.626;23.320;2023-02-04T11:22:44;92445.63;;;3.99;66.69
39789;BME280;25478;42.626;23.320;2023-02-04T11:27:54;92437.16;;;4.06;66.40
39789;BME280;25478;42.626;23.320;2023-02-04T11:30:20;92425.69;;;4.10;66.04
39789;BME280;25478;42.626;23.320;2023-02-04T11:33:03;92435.66;;;4.05;66.17
39789;BME280;25478;42.626;23.320;2023-02-04T11:35:29;92444.97;;;4.06;66.61
39789;BME280;25478;42.626;23.320;2023-02-04T11:37:55;92447.88;;;4.01;67.19
39789;BME280;25478;42.626;23.320;2023-02-04T11:40:22;92441.09;;;3.96;66.48
39789;BME280;25478;42.626;23.320;2023-02-04T11:42:48;92440.97;;;3.89;67.32
39789;BME280;25478;42.626;23.320;2023-02-04T11:45:15;92451.09;;;3.94;67.49
39789;BME280;25478;42.626;23.320;2023-02-04T11:47:42;92447.75;;;3.93;67.54
39789;BME280;25478;42.626;23.320;2023-02-04T11:50:16;92436.56;;;3.93;66.80
39789;BME280;25478;42.626;23.320;2023-02-04T11:52:44;92446.88;;;3.86;67.07
39789;BME280;25478;42.626;23.320;2023-02-04T11:55:09;92444.78;;;3.95;67.78
39789;BME280;25478;42.626;23.320;2023-02-04T11:57:42;92448.09;;;3.92;68.10
39789;BME280;25478;42.626;23.320;2023-02-04T12:00:12;92453.31;;;3.92;68.06
39789;BME280;25478;42.626;23.320;2023-02-04T12:03:21;92454.41;;;3.91;69.03
39789;BME280;25478;42.626;23.320;2023-02-04T12:05:40;92445.09;;;3.90;69.21
39789;BME280;25478;42.626;23.320;2023-02-04T12:08:22;92450.03;;;3.76;69.44
39789;BME280;25478;42.626;23.320;2023-02-04T12:10:49;92450.25;;;3.67;71.11
39789;BME280;25478;42.626;23.320;2023-02-04T12:13:16;92448.19;;;3.53;71.81
39789;BME280;25478;42.626;23.320;2023-02-04T12:15:42;92443.94;;;3.45;72.09
39789;BME280;25478;42.626;23.320;2023-02-04T12:18:16;92445.31;;;3.39;73.88
39789;BME280;25478;42.626;23.320;2023-02-04T12:20:41;92443.31;;;3.32;73.59
39789;BME280;25478;42.626;23.320;2023-02-04T12:23:07;92446.28;;;3.31;74.03
39789;BME280;25478;42.626;23.320;2023-02-04T12:25:32;92440.56;;;3.25;74.50
39789;BME280;25478;42.626;23.320;2023-02-04T12:27:58;92445.31;;;3.20;75.30
39789;BME280;25478;42.626;23.320;2023-02-04T12:30:24;92441.53;;;3.17;75.56
39789;BME280;25478;42.626;23.320;2023-02-04T12:32:50;92444.00;;;3.10;75.48
39789;BME280;25478;42.626;23.320;2023-02-04T12:35:15;92428.38;;;3.10;75.29
39789;BME280;25478;42.626;23.320;2023-02-04T12:37:41;92424.22;;;3.05;75.40
39789;BME280;25478;42.626;23.320;2023-02-04T12:40:07;92441.00;;;3.08;74.94
39789;BME280;25478;42.626;23.320;2023-02-04T12:42:32;92424.22;;;3.05;75.07
39789;BME280;25478;42.626;23.320;2023-02-04T12:44:57;92435.25;;;2.99;75.14
39789;BME280;25478;42.626;23.320;2023-02-04T12:47:23;92431.88;;;2.98;75.40
39789;BME280;25478;42.626;23.320;2023-02-04T12:49:49;92430.53;;;3.04;74.35
39789;BME280;25478;42.626;23.320;2023-02-04T12:52:14;92429.13;;;3.10;73.69
39789;BME280;25478;42.626;23.320;2023-02-04T12:54:39;92430.03;;;3.18;73.15
39789;BME280;25478;42.626;23.320;2023-02-04T12:57:05;92420.53;;;3.26;72.80
39789;BME280;25478;42.626;23.320;2023-02-04T12:59:30;92431.75;;;3.30;71.83
39789;BME280;25478;42.626;23.320;2023-02-04T13:01:56;92422.91;;;3.34;71.34
39789;BME280;25478;42.626;23.320;2023-02-04T13:04:21;92428.59;;;3.40;71.11